Time;durP1;ratioP1;P1;durP2;ratioP2;P2;SDS_P1;SDS_P2;PMS_P1;PMS_P2;Temp;Humidity;BMP_temperature;BMP_pressure;BME280_temperature;BME280_humidity;BME280_pressure;Samples;Min_cycle;Max_cycle;Signal;HPM_P1;HPM_P2
2023/10/28 00:02:01;;;;;;;18.02;7.30;;;;;;;;;;5047084;28;25065;-60
2023/10/28 00:04:27;;;;;;;27.65;7.53;;;;;;;;;;5043747;28;25059;-60
2023/10/28 00:06:53;;;;;;;21.67;7.03;;;;;;;;;;5045607;28;25481;-60
2023/10/28 00:09:20;;;;;;;18.85;6.53;;;;;;;;;;5046560;28;25058;-60
2023/10/28 00:11:46;;;;;;;20.13;7.25;;;;;;;;;;5046417;28;25064;-60
2023/10/28 00:14:14;;;;;;;23.70;7.70;;;;;;;;;;5044764;28;25071;-60
2023/10/28 00:16:40;;;;;;;20.90;7.50;;;;;;;;;;5022827;28;25059;-59
2023/10/28 00:19:07;;;;;;;21.40;8.75;;;;;;;;;;5038864;28;25092;-59
2023/10/28 00:21:34;;;;;;;27.38;9.32;;;;;;;;;;5043913;28;25049;-61
2023/10/28 00:24:01;;;;;;;27.10;10.38;;;;;;;;;;5043593;28;25079;-59
2023/10/28 00:26:28;;;;;;;17.48;8.80;;;;;;;;;;5039249;28;25068;-59
2023/10/28 00:28:54;;;;;;;23.55;10.23;;;;;;;;;;5042560;28;25069;-60
2023/10/28 00:31:20;;;;;;;21.33;9.60;;;;;;;;;;5045467;28;25060;-60
2023/10/28 00:33:46;;;;;;;33.50;11.55;;;;;;;;;;5045796;28;25062;-61
2023/10/28 00:36:12;;;;;;;19.58;8.93;;;;;;;;;;5040766;28;25135;-62
2023/10/28 00:38:38;;;;;;;27.17;10.68;;;;;;;;;;5040492;28;25075;-62
2023/10/28 00:41:04;;;;;;;23.95;10.82;;;;;;;;;;5038940;28;25110;-61
2023/10/28 00:43:32;;;;;;;25.80;11.63;;;;;;;;;;5037171;28;25063;-60
2023/10/28 00:45:59;;;;;;;27.08;10.32;;;;;;;;;;5045095;28;25051;-60
2023/10/28 00:48:25;;;;;;;26.70;11.93;;;;;;;;;;5040031;28;25059;-59
2023/10/28 00:50:51;;;;;;;23.75;11.18;;;;;;;;;;5043033;28;25121;-60
2023/10/28 00:53:17;;;;;;;26.70;11.30;;;;;;;;;;5040821;28;25077;-60
2023/10/28 00:55:43;;;;;;;18.73;10.68;;;;;;;;;;5045196;28;25135;-60
2023/10/28 00:58:10;;;;;;;31.10;12.48;;;;;;;;;;5035195;28;25102;-60
2023/10/28 01:00:36;;;;;;;21.20;11.10;;;;;;;;;;5041553;28;25050;-61
2023/10/28 01:03:03;;;;;;;23.50;11.95;;;;;;;;;;5037608;28;25050;-60
2023/10/28 01:05:30;;;;;;;26.92;11.77;;;;;;;;;;5042867;28;25080;-61
2023/10/28 01:07:58;;;;;;;29.13;13.55;;;;;;;;;;5036772;28;25053;-59
2023/10/28 01:10:31;;;;;;;26.20;13.48;;;;;;;;;;5041639;28;25050;-60
2023/10/28 01:13:01;;;;;;;19.38;11.73;;;;;;;;;;5036998;28;25090;-60
2023/10/28 01:15:27;;;;;;;25.80;12.82;;;;;;;;;;5036966;28;25136;-60
2023/10/28 01:17:53;;;;;;;20.65;10.55;;;;;;;;;;5037012;28;25070;-59
2023/10/28 01:20:19;;;;;;;28.90;12.05;;;;;;;;;;5040642;28;25075;-60
2023/10/28 01:22:45;;;;;;;23.13;12.27;;;;;;;;;;5036318;28;25092;-60
2023/10/28 01:25:11;;;;;;;31.65;11.38;;;;;;;;;;5042272;28;25048;-60
2023/10/28 01:27:38;;;;;;;24.70;11.35;;;;;;;;;;5040425;28;25170;-60
2023/10/28 01:30:04;;;;;;;28.52;11.73;;;;;;;;;;5034898;28;25082;-60
2023/10/28 01:32:30;;;;;;;25.98;13.27;;;;;;;;;;5040019;28;25141;-58
2023/10/28 01:34:56;;;;;;;26.40;12.20;;;;;;;;;;5035962;28;25068;-60
2023/10/28 01:37:22;;;;;;;27.48;13.35;;;;;;;;;;5041806;28;25085;-59
2023/10/28 01:39:50;;;;;;;25.52;11.93;;;;;;;;;;5041331;28;25166;-59
2023/10/28 01:42:16;;;;;;;25.40;11.00;;;;;;;;;;5037409;28;25115;-61
2023/10/28 01:44:43;;;;;;;22.45;12.18;;;;;;;;;;5040927;28;25148;-58
2023/10/28 01:47:09;;;;;;;19.80;10.65;;;;;;;;;;5038616;28;25062;-59
2023/10/28 01:49:38;;;;;;;32.45;11.30;;;;;;;;;;5044800;28;25082;-58
2023/10/28 01:52:05;;;;;;;23.77;12.13;;;;;;;;;;5037086;28;25097;-59
2023/10/28 01:54:33;;;;;;;18.35;10.90;;;;;;;;;;5036956;28;25071;-59
2023/10/28 01:56:59;;;;;;;23.02;12.07;;;;;;;;;;5035794;28;25082;-60
2023/10/28 01:59:25;;;;;;;21.75;11.40;;;;;;;;;;5035550;28;25063;-59
2023/10/28 02:01:52;;;;;;;21.33;11.68;;;;;;;;;;5035417;28;25156;-61
2023/10/28 02:04:17;;;;;;;24.08;9.63;;;;;;;;;;5038249;28;25058;-60
2023/10/28 02:06:44;;;;;;;27.85;12.23;;;;;;;;;;5037760;28;25146;-60
2023/10/28 02:09:10;;;;;;;22.35;11.77;;;;;;;;;;5040431;28;25099;-61
2023/10/28 02:11:39;;;;;;;18.90;11.15;;;;;;;;;;5040127;28;25069;-61
2023/10/28 02:14:08;;;;;;;22.73;12.68;;;;;;;;;;5038282;28;25067;-61
2023/10/28 02:16:37;;;;;;;24.27;11.32;;;;;;;;;;5040142;28;25130;-60
2023/10/28 02:19:03;;;;;;;26.60;13.00;;;;;;;;;;5039062;28;25147;-60
2023/10/28 02:21:29;;;;;;;24.63;11.82;;;;;;;;;;5034975;28;25065;-60
2023/10/28 02:23:55;;;;;;;24.63;13.90;;;;;;;;;;5041026;28;25054;-61
2023/10/28 02:26:21;;;;;;;27.08;14.30;;;;;;;;;;5045604;28;25136;-60
2023/10/28 02:28:47;;;;;;;24.98;10.98;;;;;;;;;;5040636;28;25080;-60
2023/10/28 02:31:13;;;;;;;30.40;13.32;;;;;;;;;;5041412;28;25056;-61
2023/10/28 02:33:39;;;;;;;21.05;13.68;;;;;;;;;;5032316;28;25166;-61
2023/10/28 02:36:08;;;;;;;25.83;13.27;;;;;;;;;;5032716;28;25079;-60
2023/10/28 02:38:35;;;;;;;24.65;13.65;;;;;;;;;;5040534;28;25066;-60
2023/10/28 02:41:01;;;;;;;42.58;13.18;;;;;;;;;;5033654;28;25168;-60
2023/10/28 02:43:27;;;;;;;34.00;14.23;;;;;;;;;;5039541;28;25104;-61
2023/10/28 02:45:53;;;;;;;23.48;12.88;;;;;;;;;;5039753;28;25178;-60
2023/10/28 02:48:19;;;;;;;19.77;13.10;;;;;;;;;;5038924;28;25077;-60
2023/10/28 02:50:45;;;;;;;25.38;13.02;;;;;;;;;;5038200;28;25073;-61
2023/10/28 02:53:11;;;;;;;21.13;12.15;;;;;;;;;;5040272;28;25148;-60
2023/10/28 02:55:37;;;;;;;19.33;13.60;;;;;;;;;;5036728;28;25144;-60
2023/10/28 02:58:04;;;;;;;20.77;12.45;;;;;;;;;;5037882;28;25047;-60
2023/10/28 03:00:30;;;;;;;19.75;14.30;;;;;;;;;;5037414;28;25044;-59
2023/10/28 03:02:57;;;;;;;21.58;14.50;;;;;;;;;;5038310;28;25057;-59
2023/10/28 03:05:24;;;;;;;20.20;15.50;;;;;;;;;;5040131;28;25060;-59
2023/10/28 03:07:50;;;;;;;17.40;15.63;;;;;;;;;;5033767;28;25085;-60
2023/10/28 03:10:16;;;;;;;17.90;15.32;;;;;;;;;;5038803;28;25077;-59
2023/10/28 03:12:42;;;;;;;19.73;16.40;;;;;;;;;;5040802;28;25085;-59
2023/10/28 03:15:10;;;;;;;18.48;16.33;;;;;;;;;;5039049;28;25074;-59
2023/10/28 03:17:36;;;;;;;22.85;15.38;;;;;;;;;;5040531;28;25108;-60
2023/10/28 03:20:03;;;;;;;17.48;15.85;;;;;;;;;;5038751;28;25089;-60
2023/10/28 03:22:29;;;;;;;17.70;16.00;;;;;;;;;;5037403;28;25088;-60
2023/10/28 03:24:55;;;;;;;18.73;15.30;;;;;;;;;;5042110;28;25106;-61
2023/10/28 03:27:21;;;;;;;14.82;13.32;;;;;;;;;;5037881;28;25132;-60
2023/10/28 03:29:49;;;;;;;16.60;13.15;;;;;;;;;;5043073;28;25050;-59
2023/10/28 03:32:15;;;;;;;12.98;11.68;;;;;;;;;;5043812;28;24995;-59
2023/10/28 03:34:41;;;;;;;19.02;12.57;;;;;;;;;;5038140;28;25132;-59
2023/10/28 03:37:07;;;;;;;17.27;11.85;;;;;;;;;;5040700;28;25074;-59
2023/10/28 03:39:33;;;;;;;12.93;11.60;;;;;;;;;;5040917;28;25086;-60
2023/10/28 03:41:59;;;;;;;11.48;8.82;;;;;;;;;;5041248;28;25119;-60
2023/10/28 03:44:25;;;;;;;12.88;7.63;;;;;;;;;;5045251;28;25132;-60
2023/10/28 03:46:51;;;;;;;15.13;6.93;;;;;;;;;;5045554;28;25124;-60
2023/10/28 03:49:17;;;;;;;17.05;7.60;;;;;;;;;;5044527;28;25120;-61
2023/10/28 03:51:44;;;;;;;14.02;7.57;;;;;;;;;;5039853;28;25074;-60
2023/10/28 03:54:09;;;;;;;8.10;7.15;;;;;;;;;;5043624;28;25057;-59
2023/10/28 03:56:35;;;;;;;13.30;7.20;;;;;;;;;;5042314;28;25063;-59
2023/10/28 03:59:01;;;;;;;10.68;6.15;;;;;;;;;;5043198;28;25054;-60
2023/10/28 04:01:27;;;;;;;7.68;5.50;;;;;;;;;;5043010;28;25063;-59
2023/10/28 04:03:55;;;;;;;10.15;5.85;;;;;;;;;;5043948;28;25068;-60
2023/10/28 04:06:20;;;;;;;10.55;6.00;;;;;;;;;;5039784;28;25140;-60
2023/10/28 04:08:46;;;;;;;11.60;6.10;;;;;;;;;;5043543;28;25056;-60
2023/10/28 04:11:12;;;;;;;11.27;5.68;;;;;;;;;;5046562;28;25165;-60
2023/10/28 04:13:39;;;;;;;10.32;5.32;;;;;;;;;;5044186;28;25097;-61
2023/10/28 04:16:05;;;;;;;8.77;5.07;;;;;;;;;;5043992;28;25066;-61
2023/10/28 04:18:31;;;;;;;13.07;5.38;;;;;;;;;;5040012;28;25073;-59
2023/10/28 04:20:57;;;;;;;9.65;5.30;;;;;;;;;;5040895;28;25056;-61
2023/10/28 04:23:23;;;;;;;6.88;4.80;;;;;;;;;;5041849;28;25103;-61
2023/10/28 04:25:49;;;;;;;9.75;5.13;;;;;;;;;;5045140;28;25097;-61
2023/10/28 04:28:16;;;;;;;9.15;4.63;;;;;;;;;;5044390;28;25042;-61
2023/10/28 04:30:42;;;;;;;18.45;6.10;;;;;;;;;;5041648;28;25057;-61
2023/10/28 04:33:08;;;;;;;9.55;6.00;;;;;;;;;;5042371;28;25049;-61
2023/10/28 04:35:34;;;;;;;12.20;6.32;;;;;;;;;;5040966;28;25111;-61
2023/10/28 04:38:00;;;;;;;10.38;5.60;;;;;;;;;;5047236;28;25072;-61
2023/10/28 04:40:26;;;;;;;12.23;6.35;;;;;;;;;;5041374;28;25014;-61
2023/10/28 04:42:52;;;;;;;8.75;5.13;;;;;;;;;;5042475;28;25066;-60
2023/10/28 04:45:17;;;;;;;12.57;6.20;;;;;;;;;;5043913;28;25076;-59
2023/10/28 04:47:44;;;;;;;11.80;6.68;;;;;;;;;;5042976;28;25066;-61
2023/10/28 04:50:10;;;;;;;10.52;6.05;;;;;;;;;;5043562;28;25062;-60
2023/10/28 04:52:36;;;;;;;11.95;7.00;;;;;;;;;;5039810;28;25131;-61
2023/10/28 04:55:02;;;;;;;10.35;5.90;;;;;;;;;;5042807;28;25083;-60
2023/10/28 04:57:28;;;;;;;11.05;5.95;;;;;;;;;;5037212;28;25100;-59
2023/10/28 04:59:54;;;;;;;16.30;6.57;;;;;;;;;;5043780;28;25133;-60
2023/10/28 05:02:20;;;;;;;9.57;6.18;;;;;;;;;;5043577;28;25077;-60
2023/10/28 05:04:46;;;;;;;15.32;6.55;;;;;;;;;;5037176;28;25066;-60
2023/10/28 05:07:12;;;;;;;12.32;6.32;;;;;;;;;;5040377;28;25088;-60
2023/10/28 05:09:38;;;;;;;12.65;6.38;;;;;;;;;;5043746;28;25105;-59
2023/10/28 05:12:04;;;;;;;12.82;6.65;;;;;;;;;;5039635;28;25167;-60
2023/10/28 05:14:30;;;;;;;12.13;6.68;;;;;;;;;;5041952;28;25149;-60
2023/10/28 05:16:56;;;;;;;14.65;6.43;;;;;;;;;;5042540;28;25074;-60
2023/10/28 05:19:22;;;;;;;11.55;5.22;;;;;;;;;;5043390;28;25145;-61
2023/10/28 05:21:49;;;;;;;12.32;7.28;;;;;;;;;;5037695;28;25139;-60
2023/10/28 05:24:16;;;;;;;12.82;6.57;;;;;;;;;;5040435;28;25072;-60
2023/10/28 05:26:43;;;;;;;15.10;6.57;;;;;;;;;;5042987;28;25139;-61
2023/10/28 05:29:09;;;;;;;14.90;6.53;;;;;;;;;;5042969;28;25166;-61
2023/10/28 05:31:36;;;;;;;14.85;8.73;;;;;;;;;;5043231;28;25084;-60
2023/10/28 05:34:02;;;;;;;12.02;7.20;;;;;;;;;;5040523;28;25136;-60
2023/10/28 05:36:28;;;;;;;18.15;8.00;;;;;;;;;;5043597;28;25062;-59
2023/10/28 05:38:54;;;;;;;13.27;6.65;;;;;;;;;;5043874;28;25076;-59
2023/10/28 05:41:21;;;;;;;12.30;6.88;;;;;;;;;;5049443;28;25060;-61
2023/10/28 05:43:48;;;;;;;12.40;6.25;;;;;;;;;;5043384;28;25171;-59
2023/10/28 05:46:14;;;;;;;15.52;6.05;;;;;;;;;;5038524;28;25133;-59
2023/10/28 05:48:40;;;;;;;12.18;6.90;;;;;;;;;;5037037;28;25081;-59
2023/10/28 05:51:06;;;;;;;11.57;5.90;;;;;;;;;;5036992;28;24768;-59
2023/10/28 05:53:33;;;;;;;11.38;5.85;;;;;;;;;;5037639;28;25143;-59
2023/10/28 05:55:59;;;;;;;13.93;6.80;;;;;;;;;;5042709;28;25113;-60
2023/10/28 05:58:25;;;;;;;13.80;6.78;;;;;;;;;;5042252;28;25088;-60
2023/10/28 06:00:52;;;;;;;11.70;5.82;;;;;;;;;;5039049;28;25057;-61
2023/10/28 06:03:18;;;;;;;16.73;6.97;;;;;;;;;;5039845;28;25087;-60
2023/10/28 06:05:44;;;;;;;11.43;6.72;;;;;;;;;;5042094;28;25068;-60
2023/10/28 06:08:11;;;;;;;14.55;6.82;;;;;;;;;;5041447;28;25144;-60
2023/10/28 06:10:37;;;;;;;14.50;7.65;;;;;;;;;;5043638;28;25058;-61
2023/10/28 06:13:03;;;;;;;14.75;7.15;;;;;;;;;;5043986;28;25113;-60
2023/10/28 06:15:29;;;;;;;11.18;7.20;;;;;;;;;;5042993;28;25139;-61
2023/10/28 06:17:57;;;;;;;16.42;6.63;;;;;;;;;;5042559;28;25079;-61
2023/10/28 06:20:23;;;;;;;10.90;6.43;;;;;;;;;;5043431;28;25076;-60
2023/10/28 06:22:49;;;;;;;15.88;6.53;;;;;;;;;;5041383;28;25138;-60
2023/10/28 06:25:15;;;;;;;16.67;6.97;;;;;;;;;;5042002;28;25065;-60
2023/10/28 06:27:41;;;;;;;11.73;6.47;;;;;;;;;;5038641;28;25052;-60
2023/10/28 06:30:11;;;;;;;13.75;5.82;;;;;;;;;;5044524;28;25160;-60
2023/10/28 06:32:38;;;;;;;13.25;6.43;;;;;;;;;;5040727;28;25115;-59
2023/10/28 06:35:04;;;;;;;10.73;6.70;;;;;;;;;;5044503;28;25060;-60
2023/10/28 06:37:30;;;;;;;15.52;7.60;;;;;;;;;;5042960;28;25151;-60
2023/10/28 06:39:58;;;;;;;14.45;7.20;;;;;;;;;;5045050;28;25151;-60
2023/10/28 06:42:24;;;;;;;14.43;7.63;;;;;;;;;;5039620;28;25072;-60
2023/10/28 06:44:50;;;;;;;14.23;7.15;;;;;;;;;;5045452;28;25073;-60
2023/10/28 06:47:16;;;;;;;12.30;6.68;;;;;;;;;;5039922;28;25120;-60
2023/10/28 06:49:42;;;;;;;14.35;6.80;;;;;;;;;;5042889;28;25107;-61
2023/10/28 06:52:08;;;;;;;15.98;7.18;;;;;;;;;;5044199;28;25063;-60
2023/10/28 06:54:34;;;;;;;14.73;6.63;;;;;;;;;;5042629;28;25074;-60
2023/10/28 06:57:00;;;;;;;13.50;5.85;;;;;;;;;;5038557;28;25065;-61
2023/10/28 06:59:26;;;;;;;12.30;6.25;;;;;;;;;;5035192;28;25046;-60
2023/10/28 07:01:55;;;;;;;10.30;6.53;;;;;;;;;;5031661;28;25071;-60
2023/10/28 07:04:22;;;;;;;15.70;6.57;;;;;;;;;;5044320;28;25066;-60
2023/10/28 07:06:48;;;;;;;14.93;6.50;;;;;;;;;;5041966;28;25046;-60
2023/10/28 07:09:15;;;;;;;14.52;7.13;;;;;;;;;;5044197;28;25137;-61
2023/10/28 07:11:42;;;;;;;16.35;6.05;;;;;;;;;;5041056;28;25068;-60
2023/10/28 07:14:08;;;;;;;13.20;5.65;;;;;;;;;;5040461;28;25066;-61
2023/10/28 07:16:35;;;;;;;16.27;5.88;;;;;;;;;;5039714;28;25142;-60
2023/10/28 07:19:01;;;;;;;20.67;5.80;;;;;;;;;;5043828;28;25062;-61
2023/10/28 07:21:27;;;;;;;16.05;6.15;;;;;;;;;;5037071;28;25065;-60
2023/10/28 07:23:53;;;;;;;13.75;5.32;;;;;;;;;;5038053;28;25108;-59
2023/10/28 07:26:19;;;;;;;15.10;4.80;;;;;;;;;;5043399;28;25068;-60
2023/10/28 07:28:45;;;;;;;13.23;5.93;;;;;;;;;;5034216;28;25062;-61
2023/10/28 07:31:11;;;;;;;15.05;6.70;;;;;;;;;;5041981;28;25083;-60
2023/10/28 07:33:37;;;;;;;17.88;7.05;;;;;;;;;;5036053;28;25098;-59
2023/10/28 07:36:04;;;;;;;16.70;6.10;;;;;;;;;;5032313;28;25057;-60
2023/10/28 07:38:30;;;;;;;20.75;6.60;;;;;;;;;;5041764;28;25056;-59
2023/10/28 07:40:57;;;;;;;11.70;5.80;;;;;;;;;;5040866;28;25073;-60
2023/10/28 07:43:23;;;;;;;11.93;6.15;;;;;;;;;;5037669;28;25073;-61
2023/10/28 07:45:49;;;;;;;16.98;7.15;;;;;;;;;;5036170;28;25049;-59
2023/10/28 07:48:15;;;;;;;15.63;6.65;;;;;;;;;;5044730;28;25052;-59
2023/10/28 07:50:42;;;;;;;19.27;6.70;;;;;;;;;;5042102;28;25111;-60
2023/10/28 07:53:08;;;;;;;12.88;6.82;;;;;;;;;;5044626;28;25080;-60
2023/10/28 07:55:35;;;;;;;17.17;6.80;;;;;;;;;;5040517;28;25075;-60
2023/10/28 07:58:01;;;;;;;18.98;6.13;;;;;;;;;;5044894;28;25046;-61
2023/10/28 08:00:28;;;;;;;14.27;6.20;;;;;;;;;;5043216;28;25155;-61
2023/10/28 08:02:54;;;;;;;11.05;5.32;;;;;;;;;;5046336;28;25122;-61
2023/10/28 08:05:20;;;;;;;13.15;6.05;;;;;;;;;;5042541;28;25137;-60
2023/10/28 08:07:50;;;;;;;12.63;5.93;;;;;;;;;;5042810;28;25061;-60
2023/10/28 08:10:22;;;;;;;14.05;7.65;;;;;;;;;;5046677;28;25066;-60
2023/10/28 08:12:49;;;;;;;17.48;6.68;;;;;;;;;;5046322;28;25051;-62
2023/10/28 08:15:15;;;;;;;11.93;6.53;;;;;;;;;;5043129;28;25136;-60
2023/10/28 08:17:41;;;;;;;20.70;7.78;;;;;;;;;;5046457;28;25069;-60
2023/10/28 08:20:08;;;;;;;17.67;7.43;;;;;;;;;;5046194;28;25149;-61
2023/10/28 08:22:35;;;;;;;15.15;8.38;;;;;;;;;;5046297;28;25061;-61
2023/10/28 08:25:04;;;;;;;19.23;7.82;;;;;;;;;;5048461;28;25097;-60
2023/10/28 08:27:32;;;;;;;14.82;7.13;;;;;;;;;;5039254;28;25071;-59
2023/10/28 08:29:58;;;;;;;15.10;6.38;;;;;;;;;;5049396;28;25063;-59
2023/10/28 08:32:24;;;;;;;14.20;7.22;;;;;;;;;;5050900;28;25071;-59
2023/10/28 08:34:51;;;;;;;13.85;7.20;;;;;;;;;;5038348;28;25051;-60
2023/10/28 08:37:18;;;;;;;16.70;7.47;;;;;;;;;;5044786;28;25194;-60
2023/10/28 08:39:45;;;;;;;14.20;6.20;;;;;;;;;;5046664;28;25074;-60
2023/10/28 08:42:12;;;;;;;16.88;6.40;;;;;;;;;;5042565;28;25047;-60
2023/10/28 08:44:39;;;;;;;13.20;5.30;;;;;;;;;;5040783;28;25079;-60
2023/10/28 08:47:08;;;;;;;16.77;5.68;;;;;;;;;;5041543;28;25126;-60
2023/10/28 08:49:38;;;;;;;17.02;5.65;;;;;;;;;;5051392;28;25065;-60
2023/10/28 08:52:04;;;;;;;20.63;5.05;;;;;;;;;;5042276;28;25063;-59
2023/10/28 08:54:31;;;;;;;11.77;5.03;;;;;;;;;;5044359;28;25074;-60
2023/10/28 08:57:00;;;;;;;17.83;5.13;;;;;;;;;;5042032;28;25044;-60
2023/10/28 08:59:27;;;;;;;13.43;4.88;;;;;;;;;;5045008;28;25079;-59
2023/10/28 09:01:53;;;;;;;12.80;4.88;;;;;;;;;;5028314;28;25067;-61
2023/10/28 09:04:21;;;;;;;15.85;5.10;;;;;;;;;;5038874;28;25056;-61
2023/10/28 09:06:48;;;;;;;11.98;4.10;;;;;;;;;;5044863;28;25077;-60
2023/10/28 09:09:16;;;;;;;10.38;3.70;;;;;;;;;;5046897;28;25051;-60
2023/10/28 09:11:42;;;;;;;14.15;3.97;;;;;;;;;;5044681;28;25060;-61
2023/10/28 09:14:08;;;;;;;12.27;4.78;;;;;;;;;;5041188;28;25070;-59
2023/10/28 09:16:35;;;;;;;13.07;3.90;;;;;;;;;;5043797;28;25086;-59
2023/10/28 09:19:05;;;;;;;9.60;3.60;;;;;;;;;;5043864;28;25058;-59
2023/10/28 09:21:31;;;;;;;13.85;3.50;;;;;;;;;;5038849;28;25045;-60
2023/10/28 09:24:00;;;;;;;9.77;2.55;;;;;;;;;;5038656;28;25092;-61
2023/10/28 09:26:26;;;;;;;11.05;3.65;;;;;;;;;;5044710;28;25052;-59
2023/10/28 09:28:52;;;;;;;12.90;3.40;;;;;;;;;;5047181;28;25060;-61
2023/10/28 09:31:30;;;;;;;13.63;4.70;;;;;;;;;;5039656;28;25082;-59
2023/10/28 09:33:57;;;;;;;11.65;3.10;;;;;;;;;;5031720;28;25056;-60
2023/10/28 09:36:24;;;;;;;9.85;3.03;;;;;;;;;;5038288;28;25057;-60
2023/10/28 09:38:52;;;;;;;11.48;2.90;;;;;;;;;;5037050;28;25047;-59
2023/10/28 09:41:19;;;;;;;11.65;2.80;;;;;;;;;;5045406;28;25071;-61
2023/10/28 09:43:45;;;;;;;10.35;2.30;;;;;;;;;;5045251;28;25098;-61
2023/10/28 09:46:11;;;;;;;8.32;2.55;;;;;;;;;;5044367;28;25060;-59
2023/10/28 09:48:39;;;;;;;8.15;2.50;;;;;;;;;;5044120;28;25070;-60
2023/10/28 09:51:05;;;;;;;8.73;2.72;;;;;;;;;;5046166;28;25053;-60
2023/10/28 09:53:34;;;;;;;8.23;3.05;;;;;;;;;;5043152;28;25163;-60
2023/10/28 09:56:04;;;;;;;10.05;3.58;;;;;;;;;;5041814;28;25092;-61
2023/10/28 09:58:36;;;;;;;7.00;2.70;;;;;;;;;;5043531;28;25119;-60
2023/10/28 10:01:20;;;;;;;11.82;2.70;;;;;;;;;;5040780;28;25075;-59
2023/10/28 10:03:46;;;;;;;15.60;3.08;;;;;;;;;;5043126;28;25122;-61
2023/10/28 10:06:12;;;;;;;8.43;2.15;;;;;;;;;;5044995;28;25142;-61
2023/10/28 10:08:47;;;;;;;8.43;2.58;;;;;;;;;;5043370;28;25076;-60
2023/10/28 10:11:15;;;;;;;10.15;2.20;;;;;;;;;;5046113;28;25094;-60
2023/10/28 10:13:44;;;;;;;7.63;2.40;;;;;;;;;;5034820;28;25155;-60
2023/10/28 10:16:15;;;;;;;7.88;2.38;;;;;;;;;;5039910;28;25068;-61
2023/10/28 10:18:47;;;;;;;14.15;2.50;;;;;;;;;;5042752;28;25080;-59
2023/10/28 10:21:18;;;;;;;11.65;2.65;;;;;;;;;;5040719;28;25081;-60
2023/10/28 10:23:52;;;;;;;13.18;2.60;;;;;;;;;;5042944;28;25062;-60
2023/10/28 10:26:29;;;;;;;9.90;3.20;;;;;;;;;;5042537;28;25089;-60
2023/10/28 10:28:58;;;;;;;8.63;2.80;;;;;;;;;;5044020;28;25056;-59
2023/10/28 10:31:27;;;;;;;9.05;3.03;;;;;;;;;;5048220;28;25063;-59
2023/10/28 10:34:03;;;;;;;7.00;2.85;;;;;;;;;;5041606;28;25067;-60
2023/10/28 10:36:30;;;;;;;11.50;2.47;;;;;;;;;;5050333;28;25057;-63
2023/10/28 10:38:56;;;;;;;9.70;3.13;;;;;;;;;;5042812;28;25054;-60
2023/10/28 10:41:29;;;;;;;9.18;2.83;;;;;;;;;;5049604;28;25059;-59
2023/10/28 10:43:56;;;;;;;10.90;2.92;;;;;;;;;;5036373;28;25063;-59
2023/10/28 10:46:21;;;;;;;7.38;2.30;;;;;;;;;;5028533;28;25071;-60
2023/10/28 10:48:47;;;;;;;11.68;2.90;;;;;;;;;;5035473;28;25073;-61
2023/10/28 10:51:16;;;;;;;8.95;2.60;;;;;;;;;;5045479;28;25125;-60
2023/10/28 10:53:43;;;;;;;13.18;2.67;;;;;;;;;;5044388;28;25250;-62
2023/10/28 10:56:19;;;;;;;13.07;3.10;;;;;;;;;;5036835;28;25112;-61
2023/10/28 10:58:45;;;;;;;7.53;2.60;;;;;;;;;;5043603;28;25123;-61
2023/10/28 11:01:12;;;;;;;13.45;2.95;;;;;;;;;;5046656;28;25055;-60
2023/10/28 11:03:38;;;;;;;10.75;2.65;;;;;;;;;;5041793;28;25124;-60
2023/10/28 11:06:05;;;;;;;11.65;2.95;;;;;;;;;;5040466;28;25048;-60
2023/10/28 11:08:31;;;;;;;16.52;2.97;;;;;;;;;;5047142;28;25171;-60
2023/10/28 11:10:57;;;;;;;12.18;2.78;;;;;;;;;;5043186;28;25087;-60
2023/10/28 11:13:23;;;;;;;7.63;2.75;;;;;;;;;;5043878;28;25108;-60
2023/10/28 11:15:49;;;;;;;10.85;3.05;;;;;;;;;;5048560;28;25067;-60
2023/10/28 11:18:15;;;;;;;10.93;2.92;;;;;;;;;;5042565;28;25059;-61
2023/10/28 11:20:42;;;;;;;20.55;3.22;;;;;;;;;;5041007;28;25073;-60
2023/10/28 11:23:08;;;;;;;14.45;3.20;;;;;;;;;;5027442;28;25066;-61
2023/10/28 11:25:35;;;;;;;16.83;3.55;;;;;;;;;;5037238;28;25178;-60
2023/10/28 11:28:08;;;;;;;12.50;3.70;;;;;;;;;;5044576;28;25070;-60
2023/10/28 11:30:34;;;;;;;14.25;3.63;;;;;;;;;;5043887;28;25065;-59
2023/10/28 11:33:07;;;;;;;13.55;3.03;;;;;;;;;;5042772;28;25075;-59
2023/10/28 11:35:34;;;;;;;12.45;3.33;;;;;;;;;;5041421;28;25077;-61
2023/10/28 11:38:02;;;;;;;16.50;3.42;;;;;;;;;;5038668;28;25141;-60
2023/10/28 11:40:29;;;;;;;16.38;3.80;;;;;;;;;;5033076;28;25064;-60
2023/10/28 11:42:54;;;;;;;18.40;4.00;;;;;;;;;;5039851;28;25082;-62
2023/10/28 11:45:21;;;;;;;15.57;3.88;;;;;;;;;;5039136;28;25066;-61
2023/10/28 11:47:46;;;;;;;17.23;4.20;;;;;;;;;;5042664;28;25083;-60
2023/10/28 11:50:12;;;;;;;13.85;3.58;;;;;;;;;;5046455;28;25108;-60
2023/10/28 11:52:39;;;;;;;16.45;4.07;;;;;;;;;;5046650;28;25074;-60
2023/10/28 11:55:05;;;;;;;18.20;3.90;;;;;;;;;;5045553;28;25091;-61
2023/10/28 11:57:33;;;;;;;12.50;3.53;;;;;;;;;;5036691;28;25154;-60
2023/10/28 11:59:59;;;;;;;15.35;3.97;;;;;;;;;;5025563;28;25093;-61
2023/10/28 12:02:25;;;;;;;16.02;3.05;;;;;;;;;;5040684;28;25110;-61
2023/10/28 12:04:51;;;;;;;13.13;3.38;;;;;;;;;;5046987;28;25060;-61
2023/10/28 12:07:17;;;;;;;17.83;4.60;;;;;;;;;;5047060;28;25072;-60
2023/10/28 12:09:43;;;;;;;13.45;3.25;;;;;;;;;;5044659;28;25060;-62
2023/10/28 12:12:09;;;;;;;21.88;4.18;;;;;;;;;;5045472;28;25157;-62
2023/10/28 12:14:36;;;;;;;20.40;4.15;;;;;;;;;;5043363;28;25104;-60
2023/10/28 12:17:02;;;;;;;19.95;4.40;;;;;;;;;;5047765;28;25103;-59
2023/10/28 12:19:28;;;;;;;14.32;4.18;;;;;;;;;;5042632;28;25121;-60
2023/10/28 12:21:54;;;;;;;17.10;4.10;;;;;;;;;;5043769;28;25142;-61
2023/10/28 12:24:20;;;;;;;14.55;3.88;;;;;;;;;;5038384;28;25051;-60
2023/10/28 12:26:46;;;;;;;20.45;4.00;;;;;;;;;;5043272;28;25105;-61
2023/10/28 12:29:12;;;;;;;21.42;4.03;;;;;;;;;;5039161;28;25075;-60
2023/10/28 12:31:38;;;;;;;21.70;4.20;;;;;;;;;;5046905;28;25081;-61
2023/10/28 12:34:04;;;;;;;24.15;4.38;;;;;;;;;;5041159;28;25085;-61
2023/10/28 12:36:30;;;;;;;16.65;4.68;;;;;;;;;;5044262;28;25131;-61
2023/10/28 12:38:56;;;;;;;18.98;4.05;;;;;;;;;;5043107;28;24614;-60
2023/10/28 12:41:22;;;;;;;20.02;4.00;;;;;;;;;;5049160;28;25102;-60
2023/10/28 12:43:49;;;;;;;14.77;3.63;;;;;;;;;;5044809;28;25152;-61
2023/10/28 12:46:15;;;;;;;20.70;4.20;;;;;;;;;;5041481;28;25109;-61
2023/10/28 12:48:41;;;;;;;15.90;4.53;;;;;;;;;;5039247;28;25081;-62
2023/10/28 12:51:08;;;;;;;19.13;4.22;;;;;;;;;;5044418;28;25119;-61
2023/10/28 12:53:34;;;;;;;21.98;4.15;;;;;;;;;;5047375;28;25058;-60
2023/10/28 12:56:02;;;;;;;18.63;4.50;;;;;;;;;;5039608;28;25130;-62
2023/10/28 12:58:28;;;;;;;17.45;3.60;;;;;;;;;;5041586;28;25064;-60
2023/10/28 13:00:54;;;;;;;25.33;5.30;;;;;;;;;;5041356;28;25054;-61
2023/10/28 13:03:21;;;;;;;20.52;4.18;;;;;;;;;;5043894;28;25102;-61
2023/10/28 13:05:47;;;;;;;16.90;4.28;;;;;;;;;;5045180;28;25076;-60
2023/10/28 13:08:13;;;;;;;23.27;4.38;;;;;;;;;;5043403;28;25078;-61
2023/10/28 13:10:39;;;;;;;15.98;4.55;;;;;;;;;;5045852;28;25096;-61
2023/10/28 13:13:05;;;;;;;19.75;4.78;;;;;;;;;;5041198;28;25056;-62
2023/10/28 13:15:32;;;;;;;17.45;3.95;;;;;;;;;;5038831;28;25056;-62
2023/10/28 13:17:58;;;;;;;20.73;4.53;;;;;;;;;;5038834;28;25150;-63
2023/10/28 13:20:25;;;;;;;18.00;4.82;;;;;;;;;;5040287;28;25099;-61
2023/10/28 13:22:51;;;;;;;16.67;3.92;;;;;;;;;;5036814;28;25058;-60
2023/10/28 13:25:17;;;;;;;22.25;4.30;;;;;;;;;;5044384;28;25135;-62
2023/10/28 13:27:42;;;;;;;22.70;4.80;;;;;;;;;;5041953;28;25064;-62
2023/10/28 13:30:09;;;;;;;23.25;5.03;;;;;;;;;;5045167;28;25160;-61
2023/10/28 13:32:35;;;;;;;20.27;4.53;;;;;;;;;;5042775;28;25114;-61
2023/10/28 13:35:02;;;;;;;23.33;4.65;;;;;;;;;;5040864;28;25145;-61
2023/10/28 13:37:28;;;;;;;25.52;6.07;;;;;;;;;;5036871;28;25074;-62
2023/10/28 13:39:54;;;;;;;25.77;5.00;;;;;;;;;;5046720;28;25066;-61
2023/10/28 13:42:20;;;;;;;20.15;4.38;;;;;;;;;;5040166;28;25090;-61
2023/10/28 13:44:45;;;;;;;18.13;4.07;;;;;;;;;;5034600;28;25097;-61
2023/10/28 13:47:12;;;;;;;12.18;3.72;;;;;;;;;;5040542;28;25092;-61
2023/10/28 13:49:38;;;;;;;20.63;4.85;;;;;;;;;;5043231;28;25086;-61
2023/10/28 13:52:04;;;;;;;17.45;4.15;;;;;;;;;;5034324;28;25153;-62
2023/10/28 13:54:33;;;;;;;15.60;3.88;;;;;;;;;;5041645;28;25143;-61
2023/10/28 13:57:01;;;;;;;30.08;4.80;;;;;;;;;;5043008;28;25063;-61
2023/10/28 13:59:27;;;;;;;18.25;4.15;;;;;;;;;;5042727;28;25128;-62
2023/10/28 14:01:53;;;;;;;18.42;4.55;;;;;;;;;;5040840;28;25042;-62
2023/10/28 14:04:19;;;;;;;21.38;4.38;;;;;;;;;;5043964;28;25137;-61
2023/10/28 14:06:45;;;;;;;14.48;3.88;;;;;;;;;;5042946;28;25056;-61
2023/10/28 14:09:12;;;;;;;17.60;3.95;;;;;;;;;;5043660;28;25147;-62
2023/10/28 14:11:38;;;;;;;22.45;4.40;;;;;;;;;;5044993;28;25097;-61
2023/10/28 14:14:04;;;;;;;17.45;4.68;;;;;;;;;;5045345;28;25106;-62
2023/10/28 14:16:30;;;;;;;17.52;4.32;;;;;;;;;;5041652;28;25138;-62
2023/10/28 14:18:58;;;;;;;21.35;4.53;;;;;;;;;;5040812;28;25054;-62
2023/10/28 14:21:24;;;;;;;17.17;4.72;;;;;;;;;;5039196;28;25103;-63
2023/10/28 14:23:50;;;;;;;20.98;4.25;;;;;;;;;;5041558;28;25067;-63
2023/10/28 14:26:17;;;;;;;18.70;4.50;;;;;;;;;;5043467;28;25053;-61